sensor_id;sensor_type;location;lat;lon;timestamp;P1;durP1;ratioP1;P2;durP2;ratioP2
9541;SDS011;4809;48.224;8.572;2022-07-03T00:00:09;2.20;;;2.05;;
9541;SDS011;4809;48.224;8.572;2022-07-03T00:02:35;2.30;;;2.00;;
9541;SDS011;4809;48.224;8.572;2022-07-03T00:05:01;2.00;;;1.90;;
9541;SDS011;4809;48.224;8.572;2022-07-03T00:07:26;2.40;;;2.20;;
9541;SDS011;4809;48.224;8.572;2022-07-03T00:09:52;1.98;;;1.88;;
9541;SDS011;4809;48.224;8.572;2022-07-03T00:12:18;2.20;;;2.00;;
9541;SDS011;4809;48.224;8.572;2022-07-03T00:14:44;2.00;;;1.90;;
9541;SDS011;4809;48.224;8.572;2022-07-03T00:17:09;2.00;;;1.90;;
9541;SDS011;4809;48.224;8.572;2022-07-03T00:19:35;1.90;;;1.80;;
9541;SDS011;4809;48.224;8.572;2022-07-03T00:22:04;1.90;;;1.80;;
9541;SDS011;4809;48.224;8.572;2022-07-03T00:24:43;2.67;;;1.90;;
9541;SDS011;4809;48.224;8.572;2022-07-03T00:27:14;2.20;;;2.00;;
9541;SDS011;4809;48.224;8.572;2022-07-03T00:29:41;1.98;;;1.88;;
9541;SDS011;4809;48.224;8.572;2022-07-03T00:32:08;2.20;;;2.00;;
9541;SDS011;4809;48.224;8.572;2022-07-03T00:34:37;3.20;;;2.03;;
9541;SDS011;4809;48.224;8.572;2022-07-03T00:37:03;2.28;;;2.17;;
9541;SDS011;4809;48.224;8.572;2022-07-03T00:39:33;2.20;;;2.10;;
9541;SDS011;4809;48.224;8.572;2022-07-03T00:42:02;2.25;;;2.05;;
9541;SDS011;4809;48.224;8.572;2022-07-03T00:44:29;2.10;;;2.00;;
9541;SDS011;4809;48.224;8.572;2022-07-03T00:46:57;2.03;;;1.92;;
9541;SDS011;4809;48.224;8.572;2022-07-03T00:49:24;2.30;;;2.10;;
9541;SDS011;4809;48.224;8.572;2022-07-03T00:51:50;2.85;;;1.98;;
9541;SDS011;4809;48.224;8.572;2022-07-03T00:54:18;2.10;;;2.00;;
9541;SDS011;4809;48.224;8.572;2022-07-03T00:56:48;2.25;;;2.03;;
9541;SDS011;4809;48.224;8.572;2022-07-03T00:59:16;2.38;;;2.17;;
9541;SDS011;4809;48.224;8.572;2022-07-03T01:01:42;2.17;;;2.00;;
9541;SDS011;4809;48.224;8.572;2022-07-03T01:06:51;2.30;;;2.10;;
9541;SDS011;4809;48.224;8.572;2022-07-03T01:09:32;2.20;;;2.10;;
9541;SDS011;4809;48.224;8.572;2022-07-03T01:12:23;2.13;;;2.00;;
9541;SDS011;4809;48.224;8.572;2022-07-03T01:15:03;2.40;;;2.20;;
9541;SDS011;4809;48.224;8.572;2022-07-03T01:17:37;2.25;;;2.13;;
9541;SDS011;4809;48.224;8.572;2022-07-03T01:20:05;2.05;;;1.95;;
9541;SDS011;4809;48.224;8.572;2022-07-03T01:27:35;2.22;;;2.10;;
9541;SDS011;4809;48.224;8.572;2022-07-03T01:30:07;2.65;;;2.03;;
9541;SDS011;4809;48.224;8.572;2022-07-03T01:32:43;2.30;;;2.10;;
9541;SDS011;4809;48.224;8.572;2022-07-03T01:35:15;3.22;;;2.40;;
9541;SDS011;4809;48.224;8.572;2022-07-03T01:37:46;2.80;;;2.35;;
9541;SDS011;4809;48.224;8.572;2022-07-03T01:40:12;2.50;;;2.30;;
9541;SDS011;4809;48.224;8.572;2022-07-03T01:42:41;2.10;;;2.00;;
9541;SDS011;4809;48.224;8.572;2022-07-03T01:45:09;2.58;;;2.38;;
9541;SDS011;4809;48.224;8.572;2022-07-03T01:47:37;2.65;;;2.45;;
9541;SDS011;4809;48.224;8.572;2022-07-03T01:50:05;2.33;;;2.22;;
9541;SDS011;4809;48.224;8.572;2022-07-03T01:52:35;2.50;;;2.30;;
9541;SDS011;4809;48.224;8.572;2022-07-03T01:55:02;2.10;;;2.00;;
9541;SDS011;4809;48.224;8.572;2022-07-03T01:57:46;2.35;;;2.25;;
9541;SDS011;4809;48.224;8.572;2022-07-03T02:00:18;2.42;;;2.28;;
9541;SDS011;4809;48.224;8.572;2022-07-03T02:03:06;2.40;;;2.20;;
9541;SDS011;4809;48.224;8.572;2022-07-03T02:05:36;2.53;;;2.17;;
9541;SDS011;4809;48.224;8.572;2022-07-03T02:11:08;2.58;;;2.30;;
9541;SDS011;4809;48.224;8.572;2022-07-03T02:16:21;3.20;;;2.33;;
9541;SDS011;4809;48.224;8.572;2022-07-03T02:18:58;3.33;;;2.40;;
9541;SDS011;4809;48.224;8.572;2022-07-03T02:21:29;7.07;;;2.30;;
9541;SDS011;4809;48.224;8.572;2022-07-03T02:26:41;2.50;;;2.30;;
9541;SDS011;4809;48.224;8.572;2022-07-03T02:29:09;2.50;;;2.40;;
9541;SDS011;4809;48.224;8.572;2022-07-03T02:31:45;2.40;;;2.20;;
9541;SDS011;4809;48.224;8.572;2022-07-03T02:34:22;2.53;;;2.33;;
9541;SDS011;4809;48.224;8.572;2022-07-03T02:36:48;3.28;;;2.10;;
9541;SDS011;4809;48.224;8.572;2022-07-03T02:39:23;4.40;;;2.30;;
9541;SDS011;4809;48.224;8.572;2022-07-03T02:42:14;2.10;;;2.00;;
9541;SDS011;4809;48.224;8.572;2022-07-03T02:44:53;2.53;;;2.25;;
9541;SDS011;4809;48.224;8.572;2022-07-03T02:47:30;2.20;;;2.00;;
9541;SDS011;4809;48.224;8.572;2022-07-03T02:50:22;2.38;;;2.17;;
9541;SDS011;4809;48.224;8.572;2022-07-03T02:55:43;2.42;;;2.22;;
9541;SDS011;4809;48.224;8.572;2022-07-03T03:01:08;2.17;;;2.08;;
9541;SDS011;4809;48.224;8.572;2022-07-03T03:04:36;2.92;;;2.30;;
9541;SDS011;4809;48.224;8.572;2022-07-03T03:06:47;3.05;;;2.22;;
9541;SDS011;4809;48.224;8.572;2022-07-03T03:09:20;3.15;;;2.20;;
9541;SDS011;4809;48.224;8.572;2022-07-03T03:11:51;2.50;;;2.30;;
9541;SDS011;4809;48.224;8.572;2022-07-03T03:14:20;2.92;;;2.20;;
9541;SDS011;4809;48.224;8.572;2022-07-03T03:16:52;2.83;;;2.20;;
9541;SDS011;4809;48.224;8.572;2022-07-03T03:19:22;2.25;;;2.03;;
9541;SDS011;4809;48.224;8.572;2022-07-03T03:21:56;2.10;;;2.00;;
9541;SDS011;4809;48.224;8.572;2022-07-03T03:24:25;2.10;;;1.90;;
9541;SDS011;4809;48.224;8.572;2022-07-03T03:26:51;4.22;;;2.20;;
9541;SDS011;4809;48.224;8.572;2022-07-03T03:29:17;2.42;;;2.20;;
9541;SDS011;4809;48.224;8.572;2022-07-03T03:31:43;2.60;;;2.38;;
9541;SDS011;4809;48.224;8.572;2022-07-03T03:34:09;3.15;;;2.45;;
9541;SDS011;4809;48.224;8.572;2022-07-03T03:36:36;2.10;;;2.00;;
9541;SDS011;4809;48.224;8.572;2022-07-03T03:39:02;2.28;;;2.08;;
9541;SDS011;4809;48.224;8.572;2022-07-03T03:41:28;2.60;;;2.30;;
9541;SDS011;4809;48.224;8.572;2022-07-03T03:43:54;2.40;;;2.20;;
9541;SDS011;4809;48.224;8.572;2022-07-03T03:46:19;2.50;;;2.30;;
9541;SDS011;4809;48.224;8.572;2022-07-03T03:48:45;2.40;;;2.20;;
9541;SDS011;4809;48.224;8.572;2022-07-03T03:51:13;2.25;;;2.13;;
9541;SDS011;4809;48.224;8.572;2022-07-03T03:53:39;2.28;;;2.17;;
9541;SDS011;4809;48.224;8.572;2022-07-03T03:56:06;2.95;;;2.20;;
9541;SDS011;4809;48.224;8.572;2022-07-03T03:58:34;2.20;;;2.05;;
9541;SDS011;4809;48.224;8.572;2022-07-03T04:01:02;2.13;;;2.03;;
9541;SDS011;4809;48.224;8.572;2022-07-03T04:03:30;2.50;;;2.30;;
9541;SDS011;4809;48.224;8.572;2022-07-03T04:05:57;2.17;;;2.08;;
9541;SDS011;4809;48.224;8.572;2022-07-03T04:08:23;2.22;;;2.13;;
9541;SDS011;4809;48.224;8.572;2022-07-03T04:10:49;3.50;;;2.38;;
9541;SDS011;4809;48.224;8.572;2022-07-03T04:13:16;2.70;;;2.50;;
9541;SDS011;4809;48.224;8.572;2022-07-03T04:15:42;2.55;;;2.35;;
9541;SDS011;4809;48.224;8.572;2022-07-03T04:18:08;2.60;;;2.40;;
9541;SDS011;4809;48.224;8.572;2022-07-03T04:20:34;2.97;;;2.72;;
9541;SDS011;4809;48.224;8.572;2022-07-03T04:23:00;2.55;;;2.35;;
9541;SDS011;4809;48.224;8.572;2022-07-03T04:25:26;2.35;;;2.15;;
9541;SDS011;4809;48.224;8.572;2022-07-03T04:27:51;3.08;;;2.20;;
9541;SDS011;4809;48.224;8.572;2022-07-03T04:30:17;2.40;;;2.20;;
9541;SDS011;4809;48.224;8.572;2022-07-03T04:32:43;2.53;;;2.30;;
9541;SDS011;4809;48.224;8.572;2022-07-03T04:35:10;2.72;;;2.40;;
9541;SDS011;4809;48.224;8.572;2022-07-03T04:37:36;2.20;;;2.10;;
9541;SDS011;4809;48.224;8.572;2022-07-03T04:40:02;2.53;;;2.30;;
9541;SDS011;4809;48.224;8.572;2022-07-03T04:42:28;2.90;;;2.20;;
9541;SDS011;4809;48.224;8.572;2022-07-03T04:44:53;2.42;;;2.17;;
9541;SDS011;4809;48.224;8.572;2022-07-03T04:47:19;2.30;;;2.10;;
9541;SDS011;4809;48.224;8.572;2022-07-03T04:49:46;2.38;;;2.13;;
9541;SDS011;4809;48.224;8.572;2022-07-03T04:52:11;2.63;;;2.20;;
9541;SDS011;4809;48.224;8.572;2022-07-03T04:54:38;2.45;;;2.17;;
9541;SDS011;4809;48.224;8.572;2022-07-03T04:57:04;2.33;;;2.13;;
9541;SDS011;4809;48.224;8.572;2022-07-03T04:59:30;2.28;;;2.03;;
9541;SDS011;4809;48.224;8.572;2022-07-03T05:01:56;2.53;;;2.33;;
9541;SDS011;4809;48.224;8.572;2022-07-03T05:04:21;3.10;;;2.20;;
9541;SDS011;4809;48.224;8.572;2022-07-03T05:06:47;2.25;;;2.00;;
9541;SDS011;4809;48.224;8.572;2022-07-03T05:09:13;2.30;;;2.10;;
9541;SDS011;4809;48.224;8.572;2022-07-03T05:11:39;2.10;;;2.00;;
9541;SDS011;4809;48.224;8.572;2022-07-03T05:14:06;3.72;;;2.38;;
9541;SDS011;4809;48.224;8.572;2022-07-03T05:16:32;2.20;;;2.10;;
9541;SDS011;4809;48.224;8.572;2022-07-03T05:18:58;2.63;;;2.40;;
9541;SDS011;4809;48.224;8.572;2022-07-03T05:21:23;2.50;;;2.30;;
9541;SDS011;4809;48.224;8.572;2022-07-03T05:23:49;5.50;;;2.33;;
9541;SDS011;4809;48.224;8.572;2022-07-03T05:26:15;2.22;;;2.03;;
9541;SDS011;4809;48.224;8.572;2022-07-03T05:28:41;2.83;;;2.10;;
9541;SDS011;4809;48.224;8.572;2022-07-03T05:31:07;2.42;;;1.98;;
9541;SDS011;4809;48.224;8.572;2022-07-03T05:33:33;1.95;;;1.85;;
9541;SDS011;4809;48.224;8.572;2022-07-03T05:35:59;2.38;;;2.10;;
9541;SDS011;4809;48.224;8.572;2022-07-03T05:38:25;2.50;;;2.30;;
9541;SDS011;4809;48.224;8.572;2022-07-03T05:41:09;2.67;;;2.47;;
9541;SDS011;4809;48.224;8.572;2022-07-03T05:43:35;3.28;;;2.50;;
9541;SDS011;4809;48.224;8.572;2022-07-03T05:46:01;2.40;;;2.20;;
9541;SDS011;4809;48.224;8.572;2022-07-03T05:48:28;2.83;;;2.28;;
9541;SDS011;4809;48.224;8.572;2022-07-03T05:50:54;2.35;;;2.15;;
9541;SDS011;4809;48.224;8.572;2022-07-03T05:53:20;2.40;;;2.20;;
9541;SDS011;4809;48.224;8.572;2022-07-03T05:55:46;2.40;;;2.20;;
9541;SDS011;4809;48.224;8.572;2022-07-03T05:58:12;2.75;;;2.30;;
9541;SDS011;4809;48.224;8.572;2022-07-03T06:00:37;3.55;;;2.17;;
9541;SDS011;4809;48.224;8.572;2022-07-03T06:03:03;2.50;;;2.30;;
9541;SDS011;4809;48.224;8.572;2022-07-03T06:05:29;2.67;;;2.20;;
9541;SDS011;4809;48.224;8.572;2022-07-03T06:07:55;2.92;;;2.40;;
9541;SDS011;4809;48.224;8.572;2022-07-03T06:10:20;2.60;;;2.40;;
9541;SDS011;4809;48.224;8.572;2022-07-03T06:12:47;4.65;;;3.72;;
9541;SDS011;4809;48.224;8.572;2022-07-03T06:15:12;11.40;;;9.85;;
9541;SDS011;4809;48.224;8.572;2022-07-03T06:17:38;8.52;;;7.53;;
9541;SDS011;4809;48.224;8.572;2022-07-03T06:20:04;7.20;;;5.60;;
9541;SDS011;4809;48.224;8.572;2022-07-03T06:22:31;6.45;;;5.80;;
9541;SDS011;4809;48.224;8.572;2022-07-03T06:24:57;6.38;;;5.78;;
9541;SDS011;4809;48.224;8.572;2022-07-03T06:27:23;2.17;;;2.00;;
9541;SDS011;4809;48.224;8.572;2022-07-03T06:29:49;2.00;;;1.90;;
9541;SDS011;4809;48.224;8.572;2022-07-03T06:32:15;2.00;;;1.90;;
9541;SDS011;4809;48.224;8.572;2022-07-03T06:34:41;1.83;;;1.73;;
9541;SDS011;4809;48.224;8.572;2022-07-03T06:37:10;1.90;;;1.80;;
9541;SDS011;4809;48.224;8.572;2022-07-03T06:39:36;2.65;;;1.80;;
9541;SDS011;4809;48.224;8.572;2022-07-03T06:42:02;1.77;;;1.55;;
9541;SDS011;4809;48.224;8.572;2022-07-03T06:44:28;3.20;;;1.67;;
9541;SDS011;4809;48.224;8.572;2022-07-03T06:46:53;1.63;;;1.52;;
9541;SDS011;4809;48.224;8.572;2022-07-03T06:49:19;1.77;;;1.67;;
9541;SDS011;4809;48.224;8.572;2022-07-03T06:51:45;1.40;;;1.30;;
9541;SDS011;4809;48.224;8.572;2022-07-03T06:54:11;1.60;;;1.50;;
9541;SDS011;4809;48.224;8.572;2022-07-03T06:56:36;1.67;;;1.52;;
9541;SDS011;4809;48.224;8.572;2022-07-03T06:59:03;1.60;;;1.50;;
9541;SDS011;4809;48.224;8.572;2022-07-03T07:01:29;2.03;;;1.48;;
9541;SDS011;4809;48.224;8.572;2022-07-03T07:03:54;1.60;;;1.50;;
9541;SDS011;4809;48.224;8.572;2022-07-03T07:06:20;1.52;;;1.40;;
9541;SDS011;4809;48.224;8.572;2022-07-03T07:08:46;1.48;;;1.38;;
9541;SDS011;4809;48.224;8.572;2022-07-03T07:11:12;1.15;;;1.15;;
9541;SDS011;4809;48.224;8.572;2022-07-03T07:13:38;1.40;;;1.30;;
9541;SDS011;4809;48.224;8.572;2022-07-03T07:16:04;1.40;;;1.30;;
9541;SDS011;4809;48.224;8.572;2022-07-03T07:18:30;2.13;;;1.27;;
9541;SDS011;4809;48.224;8.572;2022-07-03T07:20:56;1.35;;;1.30;;
9541;SDS011;4809;48.224;8.572;2022-07-03T07:23:22;1.45;;;1.35;;
9541;SDS011;4809;48.224;8.572;2022-07-03T07:25:47;1.52;;;1.42;;
9541;SDS011;4809;48.224;8.572;2022-07-03T07:28:13;1.40;;;1.30;;
9541;SDS011;4809;48.224;8.572;2022-07-03T07:30:39;3.30;;;3.00;;
9541;SDS011;4809;48.224;8.572;2022-07-03T07:33:08;1.30;;;1.20;;
9541;SDS011;4809;48.224;8.572;2022-07-03T07:35:34;1.30;;;1.20;;
9541;SDS011;4809;48.224;8.572;2022-07-03T07:38:00;1.20;;;1.17;;
9541;SDS011;4809;48.224;8.572;2022-07-03T07:40:26;1.10;;;1.10;;
9541;SDS011;4809;48.224;8.572;2022-07-03T07:42:52;2.97;;;1.42;;
9541;SDS011;4809;48.224;8.572;2022-07-03T07:45:18;1.23;;;1.10;;
9541;SDS011;4809;48.224;8.572;2022-07-03T07:47:43;1.27;;;1.25;;
9541;SDS011;4809;48.224;8.572;2022-07-03T07:50:09;1.40;;;1.30;;
9541;SDS011;4809;48.224;8.572;2022-07-03T07:52:35;1.13;;;1.13;;
9541;SDS011;4809;48.224;8.572;2022-07-03T07:55:02;1.60;;;1.20;;
9541;SDS011;4809;48.224;8.572;2022-07-03T07:57:39;1.00;;;1.00;;
9541;SDS011;4809;48.224;8.572;2022-07-03T08:00:10;0.90;;;0.90;;
9541;SDS011;4809;48.224;8.572;2022-07-03T08:02:38;1.42;;;1.20;;
9541;SDS011;4809;48.224;8.572;2022-07-03T08:05:23;1.08;;;1.08;;
9541;SDS011;4809;48.224;8.572;2022-07-03T08:08:21;1.02;;;0.93;;
9541;SDS011;4809;48.224;8.572;2022-07-03T08:10:47;1.35;;;1.15;;
9541;SDS011;4809;48.224;8.572;2022-07-03T08:13:15;1.25;;;1.10;;
9541;SDS011;4809;48.224;8.572;2022-07-03T08:15:43;1.67;;;1.20;;
9541;SDS011;4809;48.224;8.572;2022-07-03T08:18:10;1.17;;;1.08;;
9541;SDS011;4809;48.224;8.572;2022-07-03T08:20:36;1.30;;;1.20;;
9541;SDS011;4809;48.224;8.572;2022-07-03T08:23:03;1.00;;;1.00;;
9541;SDS011;4809;48.224;8.572;2022-07-03T08:25:29;1.40;;;1.20;;
9541;SDS011;4809;48.224;8.572;2022-07-03T08:27:55;1.13;;;1.02;;
9541;SDS011;4809;48.224;8.572;2022-07-03T08:30:22;1.60;;;1.50;;
9541;SDS011;4809;48.224;8.572;2022-07-03T08:32:49;2.50;;;2.30;;
9541;SDS011;4809;48.224;8.572;2022-07-03T08:35:16;2.97;;;2.30;;
9541;SDS011;4809;48.224;8.572;2022-07-03T08:37:42;1.63;;;1.52;;
9541;SDS011;4809;48.224;8.572;2022-07-03T08:40:11;1.15;;;1.15;;
9541;SDS011;4809;48.224;8.572;2022-07-03T08:42:42;1.23;;;1.10;;
9541;SDS011;4809;48.224;8.572;2022-07-03T08:45:16;1.10;;;1.00;;
9541;SDS011;4809;48.224;8.572;2022-07-03T08:47:43;1.45;;;1.05;;
9541;SDS011;4809;48.224;8.572;2022-07-03T08:50:17;1.05;;;1.00;;
9541;SDS011;4809;48.224;8.572;2022-07-03T08:52:43;1.10;;;1.10;;
9541;SDS011;4809;48.224;8.572;2022-07-03T08:55:10;0.98;;;0.93;;
9541;SDS011;4809;48.224;8.572;2022-07-03T08:57:38;1.30;;;1.00;;
9541;SDS011;4809;48.224;8.572;2022-07-03T09:00:06;0.98;;;0.98;;
9541;SDS011;4809;48.224;8.572;2022-07-03T09:02:34;1.08;;;0.90;;
9541;SDS011;4809;48.224;8.572;2022-07-03T09:05:00;1.10;;;1.10;;
9541;SDS011;4809;48.224;8.572;2022-07-03T09:07:27;1.23;;;1.05;;
9541;SDS011;4809;48.224;8.572;2022-07-03T09:09:59;1.00;;;1.00;;
9541;SDS011;4809;48.224;8.572;2022-07-03T09:12:25;1.42;;;1.20;;
9541;SDS011;4809;48.224;8.572;2022-07-03T09:14:54;1.35;;;1.10;;
9541;SDS011;4809;48.224;8.572;2022-07-03T09:17:20;1.13;;;1.02;;
9541;SDS011;4809;48.224;8.572;2022-07-03T09:19:47;1.10;;;1.10;;
9541;SDS011;4809;48.224;8.572;2022-07-03T09:24:50;1.52;;;1.10;;
9541;SDS011;4809;48.224;8.572;2022-07-03T09:27:18;1.00;;;0.90;;
9541;SDS011;4809;48.224;8.572;2022-07-03T09:35:22;1.00;;;1.00;;
9541;SDS011;4809;48.224;8.572;2022-07-03T09:40:28;1.02;;;1.02;;
9541;SDS011;4809;48.224;8.572;2022-07-03T09:43:21;1.02;;;1.02;;
9541;SDS011;4809;48.224;8.572;2022-07-03T09:46:00;1.02;;;1.02;;
9541;SDS011;4809;48.224;8.572;2022-07-03T09:48:37;1.10;;;0.98;;
9541;SDS011;4809;48.224;8.572;2022-07-03T09:51:17;1.73;;;1.05;;
9541;SDS011;4809;48.224;8.572;2022-07-03T09:56:29;1.33;;;1.23;;
9541;SDS011;4809;48.224;8.572;2022-07-03T10:01:44;1.17;;;1.10;;
9541;SDS011;4809;48.224;8.572;2022-07-03T10:04:18;1.65;;;1.00;;
9541;SDS011;4809;48.224;8.572;2022-07-03T10:06:52;1.27;;;1.17;;
9541;SDS011;4809;48.224;8.572;2022-07-03T10:09:20;1.10;;;1.10;;
9541;SDS011;4809;48.224;8.572;2022-07-03T10:11:48;2.90;;;1.30;;
9541;SDS011;4809;48.224;8.572;2022-07-03T10:14:15;1.25;;;1.10;;
9541;SDS011;4809;48.224;8.572;2022-07-03T10:16:44;2.17;;;1.10;;
9541;SDS011;4809;48.224;8.572;2022-07-03T10:19:12;1.30;;;1.20;;
9541;SDS011;4809;48.224;8.572;2022-07-03T10:21:54;1.13;;;1.13;;
9541;SDS011;4809;48.224;8.572;2022-07-03T10:24:33;2.47;;;1.35;;
9541;SDS011;4809;48.224;8.572;2022-07-03T10:27:00;1.35;;;1.30;;
9541;SDS011;4809;48.224;8.572;2022-07-03T10:29:27;1.25;;;1.20;;
9541;SDS011;4809;48.224;8.572;2022-07-03T10:31:53;1.83;;;1.00;;
9541;SDS011;4809;48.224;8.572;2022-07-03T10:34:23;1.00;;;1.00;;
9541;SDS011;4809;48.224;8.572;2022-07-03T10:36:56;1.00;;;1.00;;
9541;SDS011;4809;48.224;8.572;2022-07-03T10:43:00;1.23;;;1.00;;
9541;SDS011;4809;48.224;8.572;2022-07-03T10:51:15;1.20;;;1.10;;
9541;SDS011;4809;48.224;8.572;2022-07-03T10:53:41;1.10;;;1.10;;
9541;SDS011;4809;48.224;8.572;2022-07-03T10:56:07;1.20;;;1.10;;
9541;SDS011;4809;48.224;8.572;2022-07-03T10:58:32;0.90;;;0.90;;
9541;SDS011;4809;48.224;8.572;2022-07-03T11:01:25;1.20;;;1.10;;
9541;SDS011;4809;48.224;8.572;2022-07-03T11:03:58;1.33;;;1.17;;
9541;SDS011;4809;48.224;8.572;2022-07-03T11:09:09;1.20;;;1.10;;
9541;SDS011;4809;48.224;8.572;2022-07-03T11:11:42;1.33;;;1.20;;
9541;SDS011;4809;48.224;8.572;2022-07-03T11:14:22;1.02;;;1.00;;
9541;SDS011;4809;48.224;8.572;2022-07-03T11:16:49;1.73;;;0.88;;
9541;SDS011;4809;48.224;8.572;2022-07-03T11:19:34;1.05;;;1.00;;
9541;SDS011;4809;48.224;8.572;2022-07-03T11:22:00;1.45;;;0.95;;
9541;SDS011;4809;48.224;8.572;2022-07-03T11:24:37;1.27;;;1.15;;
9541;SDS011;4809;48.224;8.572;2022-07-03T11:27:18;0.98;;;0.95;;
9541;SDS011;4809;48.224;8.572;2022-07-03T11:29:54;1.35;;;1.10;;
9541;SDS011;4809;48.224;8.572;2022-07-03T11:35:13;1.58;;;1.10;;
9541;SDS011;4809;48.224;8.572;2022-07-03T11:38:13;0.90;;;0.90;;
9541;SDS011;4809;48.224;8.572;2022-07-03T11:40:41;1.30;;;1.20;;
9541;SDS011;4809;48.224;8.572;2022-07-03T11:43:11;1.95;;;1.35;;
9541;SDS011;4809;48.224;8.572;2022-07-03T11:45:38;2.85;;;1.30;;
9541;SDS011;4809;48.224;8.572;2022-07-03T11:48:06;1.40;;;1.30;;
9541;SDS011;4809;48.224;8.572;2022-07-03T11:50:36;1.20;;;1.20;;
9541;SDS011;4809;48.224;8.572;2022-07-03T11:56:02;1.40;;;1.30;;
9541;SDS011;4809;48.224;8.572;2022-07-03T11:58:42;1.95;;;1.30;;
9541;SDS011;4809;48.224;8.572;2022-07-03T12:01:10;1.55;;;1.45;;
9541;SDS011;4809;48.224;8.572;2022-07-03T12:03:52;1.50;;;1.23;;
9541;SDS011;4809;48.224;8.572;2022-07-03T12:06:19;1.55;;;1.45;;
9541;SDS011;4809;48.224;8.572;2022-07-03T12:08:45;1.38;;;1.27;;
9541;SDS011;4809;48.224;8.572;2022-07-03T12:11:12;1.92;;;1.40;;
9541;SDS011;4809;48.224;8.572;2022-07-03T12:13:42;1.35;;;1.30;;
9541;SDS011;4809;48.224;8.572;2022-07-03T12:16:09;1.50;;;1.40;;
9541;SDS011;4809;48.224;8.572;2022-07-03T12:18:46;1.50;;;1.40;;
9541;SDS011;4809;48.224;8.572;2022-07-03T12:21:20;2.28;;;1.40;;
9541;SDS011;4809;48.224;8.572;2022-07-03T12:23:53;2.15;;;1.40;;
9541;SDS011;4809;48.224;8.572;2022-07-03T12:26:30;1.48;;;1.38;;
9541;SDS011;4809;48.224;8.572;2022-07-03T12:28:58;2.15;;;1.20;;
9541;SDS011;4809;48.224;8.572;2022-07-03T12:31:25;3.05;;;1.40;;
9541;SDS011;4809;48.224;8.572;2022-07-03T12:33:52;1.58;;;1.48;;
9541;SDS011;4809;48.224;8.572;2022-07-03T12:36:18;1.75;;;1.17;;
9541;SDS011;4809;48.224;8.572;2022-07-03T12:38:47;1.85;;;1.50;;
9541;SDS011;4809;48.224;8.572;2022-07-03T12:41:22;1.88;;;1.30;;
9541;SDS011;4809;48.224;8.572;2022-07-03T12:43:48;1.60;;;1.50;;
9541;SDS011;4809;48.224;8.572;2022-07-03T12:48:51;1.30;;;1.15;;
9541;SDS011;4809;48.224;8.572;2022-07-03T12:54:15;3.55;;;1.23;;
9541;SDS011;4809;48.224;8.572;2022-07-03T12:57:05;1.63;;;1.20;;
9541;SDS011;4809;48.224;8.572;2022-07-03T13:02:32;1.73;;;1.30;;
9541;SDS011;4809;48.224;8.572;2022-07-03T13:04:59;1.50;;;1.40;;
9541;SDS011;4809;48.224;8.572;2022-07-03T13:07:29;1.10;;;1.10;;
9541;SDS011;4809;48.224;8.572;2022-07-03T13:09:59;1.83;;;1.40;;
9541;SDS011;4809;48.224;8.572;2022-07-03T13:12:26;1.63;;;1.30;;
9541;SDS011;4809;48.224;8.572;2022-07-03T13:14:56;1.50;;;1.40;;
9541;SDS011;4809;48.224;8.572;2022-07-03T13:17:22;1.48;;;1.30;;
9541;SDS011;4809;48.224;8.572;2022-07-03T13:19:48;2.25;;;1.40;;
9541;SDS011;4809;48.224;8.572;2022-07-03T13:22:14;1.58;;;1.20;;
9541;SDS011;4809;48.224;8.572;2022-07-03T13:24:40;1.10;;;1.00;;
9541;SDS011;4809;48.224;8.572;2022-07-03T13:27:06;1.15;;;1.10;;
9541;SDS011;4809;48.224;8.572;2022-07-03T13:29:31;1.15;;;1.13;;
9541;SDS011;4809;48.224;8.572;2022-07-03T13:31:57;1.27;;;1.20;;
9541;SDS011;4809;48.224;8.572;2022-07-03T13:34:22;1.50;;;1.40;;
9541;SDS011;4809;48.224;8.572;2022-07-03T13:36:48;1.17;;;1.10;;
9541;SDS011;4809;48.224;8.572;2022-07-03T13:39:14;1.67;;;1.50;;
9541;SDS011;4809;48.224;8.572;2022-07-03T13:41:40;1.08;;;1.08;;
9541;SDS011;4809;48.224;8.572;2022-07-03T13:44:06;1.33;;;1.20;;
9541;SDS011;4809;48.224;8.572;2022-07-03T13:46:31;2.45;;;1.20;;
9541;SDS011;4809;48.224;8.572;2022-07-03T13:49:00;1.10;;;1.10;;
9541;SDS011;4809;48.224;8.572;2022-07-03T13:51:26;1.20;;;1.10;;
9541;SDS011;4809;48.224;8.572;2022-07-03T13:53:52;1.30;;;1.20;;
9541;SDS011;4809;48.224;8.572;2022-07-03T13:56:17;2.08;;;1.17;;
9541;SDS011;4809;48.224;8.572;2022-07-03T13:58:44;1.20;;;1.10;;
9541;SDS011;4809;48.224;8.572;2022-07-03T14:01:11;1.27;;;1.10;;
9541;SDS011;4809;48.224;8.572;2022-07-03T14:03:36;1.20;;;1.10;;
9541;SDS011;4809;48.224;8.572;2022-07-03T14:06:02;1.10;;;1.10;;
9541;SDS011;4809;48.224;8.572;2022-07-03T14:08:28;1.02;;;0.90;;
9541;SDS011;4809;48.224;8.572;2022-07-03T14:10:53;1.13;;;1.13;;
9541;SDS011;4809;48.224;8.572;2022-07-03T14:13:19;1.10;;;1.10;;
9541;SDS011;4809;48.224;8.572;2022-07-03T14:15:44;1.35;;;1.17;;
9541;SDS011;4809;48.224;8.572;2022-07-03T14:18:11;1.15;;;1.15;;
9541;SDS011;4809;48.224;8.572;2022-07-03T14:20:36;0.95;;;0.93;;
9541;SDS011;4809;48.224;8.572;2022-07-03T14:23:02;1.20;;;1.10;;
9541;SDS011;4809;48.224;8.572;2022-07-03T14:25:28;1.27;;;1.17;;
9541;SDS011;4809;48.224;8.572;2022-07-03T14:27:53;1.27;;;1.17;;
9541;SDS011;4809;48.224;8.572;2022-07-03T14:30:38;3.20;;;1.80;;
9541;SDS011;4809;48.224;8.572;2022-07-03T14:33:22;1.20;;;1.20;;
9541;SDS011;4809;48.224;8.572;2022-07-03T14:35:47;1.27;;;1.05;;
9541;SDS011;4809;48.224;8.572;2022-07-03T14:38:13;1.52;;;1.30;;
9541;SDS011;4809;48.224;8.572;2022-07-03T14:40:39;2.72;;;1.13;;
9541;SDS011;4809;48.224;8.572;2022-07-03T14:43:05;2.88;;;1.20;;
9541;SDS011;4809;48.224;8.572;2022-07-03T14:45:30;1.20;;;1.10;;
9541;SDS011;4809;48.224;8.572;2022-07-03T14:47:56;1.30;;;1.20;;
9541;SDS011;4809;48.224;8.572;2022-07-03T14:50:22;1.50;;;1.38;;
9541;SDS011;4809;48.224;8.572;2022-07-03T14:52:48;2.30;;;2.03;;
9541;SDS011;4809;48.224;8.572;2022-07-03T14:55:13;1.50;;;1.35;;
9541;SDS011;4809;48.224;8.572;2022-07-03T15:00:14;1.70;;;1.30;;
9541;SDS011;4809;48.224;8.572;2022-07-03T15:05:13;1.48;;;1.20;;
9541;SDS011;4809;48.224;8.572;2022-07-03T15:07:40;1.42;;;1.33;;
9541;SDS011;4809;48.224;8.572;2022-07-03T15:10:11;1.30;;;1.20;;
9541;SDS011;4809;48.224;8.572;2022-07-03T15:12:50;1.50;;;1.30;;
9541;SDS011;4809;48.224;8.572;2022-07-03T15:15:18;1.42;;;1.20;;
9541;SDS011;4809;48.224;8.572;2022-07-03T15:17:49;2.28;;;1.20;;
9541;SDS011;4809;48.224;8.572;2022-07-03T15:20:17;1.40;;;1.17;;
9541;SDS011;4809;48.224;8.572;2022-07-03T15:22:44;1.42;;;1.20;;
9541;SDS011;4809;48.224;8.572;2022-07-03T15:25:12;1.30;;;1.20;;
9541;SDS011;4809;48.224;8.572;2022-07-03T15:27:42;1.23;;;1.13;;
9541;SDS011;4809;48.224;8.572;2022-07-03T15:30:14;1.25;;;1.15;;
9541;SDS011;4809;48.224;8.572;2022-07-03T15:32:40;2.05;;;1.30;;
9541;SDS011;4809;48.224;8.572;2022-07-03T15:35:12;1.25;;;1.15;;
9541;SDS011;4809;48.224;8.572;2022-07-03T15:54:01;1.63;;;1.40;;
9541;SDS011;4809;48.224;8.572;2022-07-03T15:56:30;1.55;;;1.23;;
9541;SDS011;4809;48.224;8.572;2022-07-03T15:59:01;1.75;;;1.33;;
9541;SDS011;4809;48.224;8.572;2022-07-03T16:01:29;1.40;;;1.30;;
9541;SDS011;4809;48.224;8.572;2022-07-03T16:04:18;1.42;;;1.33;;
9541;SDS011;4809;48.224;8.572;2022-07-03T16:06:52;1.10;;;1.10;;
9541;SDS011;4809;48.224;8.572;2022-07-03T16:09:20;1.50;;;1.40;;
9541;SDS011;4809;48.224;8.572;2022-07-03T16:11:47;1.67;;;1.30;;
9541;SDS011;4809;48.224;8.572;2022-07-03T16:14:14;1.50;;;1.40;;
9541;SDS011;4809;48.224;8.572;2022-07-03T16:16:40;1.90;;;1.27;;
9541;SDS011;4809;48.224;8.572;2022-07-03T16:19:08;1.60;;;1.50;;
9541;SDS011;4809;48.224;8.572;2022-07-03T16:21:36;1.50;;;1.40;;
9541;SDS011;4809;48.224;8.572;2022-07-03T16:24:03;2.40;;;1.50;;
9541;SDS011;4809;48.224;8.572;2022-07-03T16:26:31;2.20;;;1.50;;
9541;SDS011;4809;48.224;8.572;2022-07-03T16:29:00;3.67;;;1.63;;
9541;SDS011;4809;48.224;8.572;2022-07-03T16:31:32;1.50;;;1.40;;
9541;SDS011;4809;48.224;8.572;2022-07-03T16:34:11;2.35;;;1.50;;
9541;SDS011;4809;48.224;8.572;2022-07-03T16:36:48;1.88;;;1.58;;
9541;SDS011;4809;48.224;8.572;2022-07-03T16:39:38;1.55;;;1.45;;
9541;SDS011;4809;48.224;8.572;2022-07-03T16:42:05;1.63;;;1.52;;
9541;SDS011;4809;48.224;8.572;2022-07-03T16:44:33;1.92;;;1.38;;
9541;SDS011;4809;48.224;8.572;2022-07-03T16:47:02;1.42;;;1.33;;
9541;SDS011;4809;48.224;8.572;2022-07-03T16:49:36;1.98;;;1.50;;
9541;SDS011;4809;48.224;8.572;2022-07-03T16:52:10;1.85;;;1.50;;